sensor_id;sensor_type;location;lat;lon;timestamp;pressure;altitude;pressure_sealevel;temperature;humidity
64354;BME280;50681;53.334;-6.536;2024-03-08T00:00:15;100709.28;;;12.44;100.00
64354;BME280;50681;53.334;-6.536;2024-03-08T00:02:43;100705.91;;;12.52;100.00
64354;BME280;50681;53.334;-6.536;2024-03-08T00:05:09;100710.81;;;12.64;100.00
64354;BME280;50681;53.334;-6.536;2024-03-08T00:07:36;100713.25;;;12.79;100.00
64354;BME280;50681;53.334;-6.536;2024-03-08T00:10:06;100705.00;;;13.13;100.00
64354;BME280;50681;53.334;-6.536;2024-03-08T00:12:36;100711.69;;;12.45;100.00
64354;BME280;50681;53.334;-6.536;2024-03-08T00:15:03;100710.31;;;12.62;100.00
64354;BME280;50681;53.334;-6.536;2024-03-08T00:17:28;100706.69;;;12.53;100.00
64354;BME280;50681;53.334;-6.536;2024-03-08T00:19:54;100699.19;;;12.63;100.00
64354;BME280;50681;53.334;-6.536;2024-03-08T00:22:20;100694.69;;;12.73;100.00
64354;BME280;50681;53.334;-6.536;2024-03-08T00:24:47;100682.72;;;12.60;100.00
64354;BME280;50681;53.334;-6.536;2024-03-08T00:27:15;100698.91;;;12.79;100.00
64354;BME280;50681;53.334;-6.536;2024-03-08T00:29:44;100697.97;;;12.56;100.00
64354;BME280;50681;53.334;-6.536;2024-03-08T00:32:10;100689.16;;;12.50;100.00
64354;BME280;50681;53.334;-6.536;2024-03-08T00:34:36;100690.94;;;12.55;100.00
64354;BME280;50681;53.334;-6.536;2024-03-08T00:37:03;100686.03;;;12.57;100.00
64354;BME280;50681;53.334;-6.536;2024-03-08T00:39:29;100684.00;;;12.48;100.00
64354;BME280;50681;53.334;-6.536;2024-03-08T00:41:55;100680.38;;;12.39;100.00
64354;BME280;50681;53.334;-6.536;2024-03-08T00:44:21;100671.44;;;12.25;100.00
64354;BME280;50681;53.334;-6.536;2024-03-08T00:46:49;100673.03;;;12.26;100.00
64354;BME280;50681;53.334;-6.536;2024-03-08T00:49:15;100677.31;;;12.60;100.00
64354;BME280;50681;53.334;-6.536;2024-03-08T00:51:41;100668.59;;;12.63;100.00
64354;BME280;50681;53.334;-6.536;2024-03-08T00:54:09;100653.84;;;12.55;100.00
64354;BME280;50681;53.334;-6.536;2024-03-08T00:56:35;100659.91;;;12.33;100.00
64354;BME280;50681;53.334;-6.536;2024-03-08T00:59:01;100658.44;;;12.55;100.00
64354;BME280;50681;53.334;-6.536;2024-03-08T01:01:28;100645.50;;;12.52;100.00
64354;BME280;50681;53.334;-6.536;2024-03-08T01:03:57;100651.19;;;12.36;100.00
64354;BME280;50681;53.334;-6.536;2024-03-08T01:06:24;100645.78;;;12.36;100.00
64354;BME280;50681;53.334;-6.536;2024-03-08T01:08:55;100650.53;;;12.72;100.00
64354;BME280;50681;53.334;-6.536;2024-03-08T01:11:43;100645.31;;;12.76;100.00
64354;BME280;50681;53.334;-6.536;2024-03-08T01:14:12;100642.47;;;12.25;100.00
64354;BME280;50681;53.334;-6.536;2024-03-08T01:16:37;100648.72;;;12.40;100.00
64354;BME280;50681;53.334;-6.536;2024-03-08T01:19:03;100650.00;;;12.28;100.00
64354;BME280;50681;53.334;-6.536;2024-03-08T01:21:29;100644.84;;;11.94;100.00
64354;BME280;50681;53.334;-6.536;2024-03-08T01:23:55;100642.34;;;11.64;100.00
64354;BME280;50681;53.334;-6.536;2024-03-08T01:26:20;100632.28;;;12.03;100.00
64354;BME280;50681;53.334;-6.536;2024-03-08T01:28:48;100631.13;;;11.90;100.00
64354;BME280;50681;53.334;-6.536;2024-03-08T01:31:14;100626.91;;;12.17;100.00
64354;BME280;50681;53.334;-6.536;2024-03-08T01:33:41;100630.00;;;12.10;100.00
64354;BME280;50681;53.334;-6.536;2024-03-08T01:36:07;100624.63;;;11.91;100.00
64354;BME280;50681;53.334;-6.536;2024-03-08T01:38:33;100622.88;;;11.81;100.00
64354;BME280;50681;53.334;-6.536;2024-03-08T01:40:59;100628.19;;;12.05;100.00
64354;BME280;50681;53.334;-6.536;2024-03-08T01:43:27;100625.16;;;12.07;100.00
64354;BME280;50681;53.334;-6.536;2024-03-08T01:45:59;100624.13;;;12.36;100.00
64354;BME280;50681;53.334;-6.536;2024-03-08T01:48:27;100606.63;;;12.14;100.00
64354;BME280;50681;53.334;-6.536;2024-03-08T01:50:55;100612.59;;;11.97;100.00
64354;BME280;50681;53.334;-6.536;2024-03-08T01:53:22;100604.06;;;11.90;100.00
64354;BME280;50681;53.334;-6.536;2024-03-08T01:55:49;100603.25;;;12.23;100.00
64354;BME280;50681;53.334;-6.536;2024-03-08T01:58:20;100597.25;;;12.26;100.00
64354;BME280;50681;53.334;-6.536;2024-03-08T02:00:48;100588.38;;;12.06;100.00
64354;BME280;50681;53.334;-6.536;2024-03-08T02:03:17;100586.66;;;11.96;100.00
64354;BME280;50681;53.334;-6.536;2024-03-08T02:05:52;100588.53;;;11.96;100.00
64354;BME280;50681;53.334;-6.536;2024-03-08T02:08:18;100585.16;;;11.71;100.00
64354;BME280;50681;53.334;-6.536;2024-03-08T02:10:45;100576.13;;;11.61;100.00
64354;BME280;50681;53.334;-6.536;2024-03-08T02:13:13;100575.84;;;11.77;100.00
64354;BME280;50681;53.334;-6.536;2024-03-08T02:15:55;100572.78;;;11.84;100.00
64354;BME280;50681;53.334;-6.536;2024-03-08T02:18:22;100560.56;;;11.53;100.00
64354;BME280;50681;53.334;-6.536;2024-03-08T02:20:53;100564.44;;;11.80;100.00
64354;BME280;50681;53.334;-6.536;2024-03-08T02:23:19;100547.03;;;11.53;100.00
64354;BME280;50681;53.334;-6.536;2024-03-08T02:25:46;100554.28;;;11.39;100.00
64354;BME280;50681;53.334;-6.536;2024-03-08T02:28:12;100551.47;;;11.96;100.00
64354;BME280;50681;53.334;-6.536;2024-03-08T02:30:38;100545.09;;;11.40;100.00
64354;BME280;50681;53.334;-6.536;2024-03-08T02:33:07;100543.28;;;12.43;100.00
64354;BME280;50681;53.334;-6.536;2024-03-08T02:35:36;100534.84;;;12.73;100.00
64354;BME280;50681;53.334;-6.536;2024-03-08T02:38:03;100538.44;;;12.82;100.00
64354;BME280;50681;53.334;-6.536;2024-03-08T02:40:29;100524.34;;;12.15;100.00
64354;BME280;50681;53.334;-6.536;2024-03-08T02:42:55;100516.09;;;11.45;100.00
64354;BME280;50681;53.334;-6.536;2024-03-08T02:45:31;100517.00;;;11.55;100.00
64354;BME280;50681;53.334;-6.536;2024-03-08T02:47:57;100515.16;;;11.17;100.00
64354;BME280;50681;53.334;-6.536;2024-03-08T02:50:23;100511.97;;;11.48;100.00
64354;BME280;50681;53.334;-6.536;2024-03-08T02:52:51;100512.72;;;11.35;100.00
64354;BME280;50681;53.334;-6.536;2024-03-08T02:55:17;100490.69;;;11.27;100.00
64354;BME280;50681;53.334;-6.536;2024-03-08T02:57:43;100482.38;;;11.57;100.00
64354;BME280;50681;53.334;-6.536;2024-03-08T03:00:10;100479.09;;;11.27;100.00
64354;BME280;50681;53.334;-6.536;2024-03-08T03:02:35;100482.47;;;11.52;100.00
64354;BME280;50681;53.334;-6.536;2024-03-08T03:05:05;100468.94;;;11.18;100.00
64354;BME280;50681;53.334;-6.536;2024-03-08T03:07:35;100454.22;;;10.92;100.00
64354;BME280;50681;53.334;-6.536;2024-03-08T03:10:01;100458.16;;;11.32;100.00
64354;BME280;50681;53.334;-6.536;2024-03-08T03:12:28;100442.06;;;11.41;100.00
64354;BME280;50681;53.334;-6.536;2024-03-08T03:14:54;100444.03;;;11.22;100.00
64354;BME280;50681;53.334;-6.536;2024-03-08T03:17:25;100443.72;;;10.71;100.00
64354;BME280;50681;53.334;-6.536;2024-03-08T03:19:51;100445.66;;;11.03;100.00
64354;BME280;50681;53.334;-6.536;2024-03-08T03:22:30;100437.56;;;11.03;100.00
64354;BME280;50681;53.334;-6.536;2024-03-08T03:24:56;100448.88;;;11.06;100.00
64354;BME280;50681;53.334;-6.536;2024-03-08T03:27:23;100441.56;;;11.06;100.00
64354;BME280;50681;53.334;-6.536;2024-03-08T03:29:50;100438.97;;;11.01;100.00
64354;BME280;50681;53.334;-6.536;2024-03-08T03:32:17;100432.81;;;10.95;100.00
64354;BME280;50681;53.334;-6.536;2024-03-08T03:34:46;100435.28;;;11.11;100.00
64354;BME280;50681;53.334;-6.536;2024-03-08T03:37:13;100432.78;;;11.14;100.00
64354;BME280;50681;53.334;-6.536;2024-03-08T03:39:41;100422.94;;;11.38;100.00
64354;BME280;50681;53.334;-6.536;2024-03-08T03:42:21;100422.56;;;11.58;100.00
64354;BME280;50681;53.334;-6.536;2024-03-08T03:44:47;100427.09;;;11.16;100.00
64354;BME280;50681;53.334;-6.536;2024-03-08T03:47:13;100426.41;;;11.24;100.00
64354;BME280;50681;53.334;-6.536;2024-03-08T03:49:40;100421.03;;;11.38;100.00
64354;BME280;50681;53.334;-6.536;2024-03-08T03:52:06;100419.72;;;11.36;100.00
64354;BME280;50681;53.334;-6.536;2024-03-08T03:54:32;100419.38;;;11.09;100.00
64354;BME280;50681;53.334;-6.536;2024-03-08T03:56:58;100424.75;;;11.56;100.00
64354;BME280;50681;53.334;-6.536;2024-03-08T03:59:26;100423.09;;;11.27;100.00
64354;BME280;50681;53.334;-6.536;2024-03-08T04:01:53;100421.75;;;11.44;100.00
64354;BME280;50681;53.334;-6.536;2024-03-08T04:04:20;100413.06;;;11.14;100.00
64354;BME280;50681;53.334;-6.536;2024-03-08T04:06:46;100413.88;;;10.81;100.00
64354;BME280;50681;53.334;-6.536;2024-03-08T04:09:13;100416.28;;;11.16;100.00
64354;BME280;50681;53.334;-6.536;2024-03-08T04:11:39;100415.94;;;11.03;100.00
64354;BME280;50681;53.334;-6.536;2024-03-08T04:14:05;100409.84;;;11.12;100.00
64354;BME280;50681;53.334;-6.536;2024-03-08T04:16:34;100404.44;;;11.12;100.00
64354;BME280;50681;53.334;-6.536;2024-03-08T04:19:03;100408.25;;;11.11;100.00
64354;BME280;50681;53.334;-6.536;2024-03-08T04:21:34;100398.22;;;11.58;100.00
64354;BME280;50681;53.334;-6.536;2024-03-08T04:24:01;100399.59;;;11.28;100.00
64354;BME280;50681;53.334;-6.536;2024-03-08T04:26:27;100398.03;;;11.83;100.00
64354;BME280;50681;53.334;-6.536;2024-03-08T04:28:52;100403.72;;;11.53;100.00
64354;BME280;50681;53.334;-6.536;2024-03-08T04:31:21;100392.72;;;11.64;100.00
64354;BME280;50681;53.334;-6.536;2024-03-08T04:33:47;100387.00;;;11.51;100.00
64354;BME280;50681;53.334;-6.536;2024-03-08T04:36:13;100395.13;;;11.93;100.00
64354;BME280;50681;53.334;-6.536;2024-03-08T04:38:42;100380.41;;;11.85;100.00
64354;BME280;50681;53.334;-6.536;2024-03-08T04:41:08;100382.69;;;11.78;100.00
64354;BME280;50681;53.334;-6.536;2024-03-08T04:43:35;100375.50;;;11.59;100.00
64354;BME280;50681;53.334;-6.536;2024-03-08T04:46:01;100375.22;;;11.61;100.00
64354;BME280;50681;53.334;-6.536;2024-03-08T04:48:30;100376.91;;;11.71;100.00
64354;BME280;50681;53.334;-6.536;2024-03-08T04:50:57;100373.50;;;11.65;100.00
64354;BME280;50681;53.334;-6.536;2024-03-08T04:53:23;100380.22;;;11.54;100.00
64354;BME280;50681;53.334;-6.536;2024-03-08T04:55:49;100380.59;;;11.75;100.00
64354;BME280;50681;53.334;-6.536;2024-03-08T04:58:14;100385.00;;;11.71;100.00
64354;BME280;50681;53.334;-6.536;2024-03-08T05:00:40;100376.22;;;11.65;100.00
64354;BME280;50681;53.334;-6.536;2024-03-08T05:03:06;100371.00;;;11.69;100.00
64354;BME280;50681;53.334;-6.536;2024-03-08T05:05:32;100366.78;;;11.49;100.00
64354;BME280;50681;53.334;-6.536;2024-03-08T05:07:58;100363.97;;;11.68;100.00
64354;BME280;50681;53.334;-6.536;2024-03-08T05:10:27;100357.84;;;11.76;100.00
64354;BME280;50681;53.334;-6.536;2024-03-08T05:13:10;100365.47;;;11.88;100.00
64354;BME280;50681;53.334;-6.536;2024-03-08T05:15:35;100362.25;;;11.30;100.00
64354;BME280;50681;53.334;-6.536;2024-03-08T05:18:02;100357.47;;;11.83;100.00
64354;BME280;50681;53.334;-6.536;2024-03-08T05:20:28;100342.25;;;11.59;100.00
64354;BME280;50681;53.334;-6.536;2024-03-08T05:23:14;100341.25;;;11.55;100.00
64354;BME280;50681;53.334;-6.536;2024-03-08T05:25:40;100338.53;;;11.69;100.00
64354;BME280;50681;53.334;-6.536;2024-03-08T05:28:06;100339.03;;;11.29;100.00
64354;BME280;50681;53.334;-6.536;2024-03-08T05:30:32;100331.81;;;11.52;100.00
64354;BME280;50681;53.334;-6.536;2024-03-08T05:32:58;100329.81;;;11.16;100.00
64354;BME280;50681;53.334;-6.536;2024-03-08T05:35:24;100330.22;;;11.37;100.00
64354;BME280;50681;53.334;-6.536;2024-03-08T05:37:50;100324.00;;;11.37;100.00
64354;BME280;50681;53.334;-6.536;2024-03-08T05:40:15;100324.72;;;11.42;100.00
64354;BME280;50681;53.334;-6.536;2024-03-08T05:42:41;100310.78;;;11.07;100.00
64354;BME280;50681;53.334;-6.536;2024-03-08T05:45:07;100312.72;;;11.21;100.00
64354;BME280;50681;53.334;-6.536;2024-03-08T05:47:35;100305.78;;;11.14;100.00
64354;BME280;50681;53.334;-6.536;2024-03-08T05:50:01;100314.06;;;10.38;100.00
64354;BME280;50681;53.334;-6.536;2024-03-08T05:52:31;100305.63;;;10.44;100.00
64354;BME280;50681;53.334;-6.536;2024-03-08T05:55:03;100307.44;;;10.30;100.00
64354;BME280;50681;53.334;-6.536;2024-03-08T05:57:36;100298.59;;;10.24;100.00
64354;BME280;50681;53.334;-6.536;2024-03-08T06:00:09;100289.13;;;10.93;100.00
64354;BME280;50681;53.334;-6.536;2024-03-08T06:02:42;100290.50;;;10.24;100.00
64354;BME280;50681;53.334;-6.536;2024-03-08T06:05:13;100289.34;;;9.92;100.00
64354;BME280;50681;53.334;-6.536;2024-03-08T06:07:39;100287.31;;;9.65;100.00
64354;BME280;50681;53.334;-6.536;2024-03-08T06:10:07;100270.47;;;9.92;100.00
64354;BME280;50681;53.334;-6.536;2024-03-08T06:12:35;100269.38;;;9.74;100.00
64354;BME280;50681;53.334;-6.536;2024-03-08T06:15:06;100265.16;;;9.68;100.00
64354;BME280;50681;53.334;-6.536;2024-03-08T06:17:31;100268.56;;;9.54;100.00
64354;BME280;50681;53.334;-6.536;2024-03-08T06:19:57;100268.69;;;9.44;100.00
64354;BME280;50681;53.334;-6.536;2024-03-08T06:22:22;100260.41;;;9.35;100.00
64354;BME280;50681;53.334;-6.536;2024-03-08T06:24:47;100257.91;;;9.44;100.00
64354;BME280;50681;53.334;-6.536;2024-03-08T06:27:13;100260.59;;;9.44;100.00
64354;BME280;50681;53.334;-6.536;2024-03-08T06:29:39;100257.09;;;9.44;100.00
64354;BME280;50681;53.334;-6.536;2024-03-08T06:32:05;100256.63;;;9.61;100.00
64354;BME280;50681;53.334;-6.536;2024-03-08T06:34:32;100243.66;;;9.82;100.00
64354;BME280;50681;53.334;-6.536;2024-03-08T06:37:00;100241.53;;;9.79;100.00
64354;BME280;50681;53.334;-6.536;2024-03-08T06:39:26;100251.69;;;10.06;100.00
64354;BME280;50681;53.334;-6.536;2024-03-08T06:41:52;100247.94;;;9.83;100.00
64354;BME280;50681;53.334;-6.536;2024-03-08T06:44:17;100242.47;;;9.88;100.00
64354;BME280;50681;53.334;-6.536;2024-03-08T06:46:43;100248.47;;;9.66;100.00
64354;BME280;50681;53.334;-6.536;2024-03-08T06:49:08;100238.25;;;9.63;100.00
64354;BME280;50681;53.334;-6.536;2024-03-08T06:51:36;100242.78;;;9.67;100.00
64354;BME280;50681;53.334;-6.536;2024-03-08T06:54:01;100245.91;;;9.55;100.00
64354;BME280;50681;53.334;-6.536;2024-03-08T06:56:33;100234.94;;;9.27;100.00
64354;BME280;50681;53.334;-6.536;2024-03-08T06:58:59;100230.25;;;9.33;100.00
64354;BME280;50681;53.334;-6.536;2024-03-08T07:01:30;100240.00;;;9.53;100.00
64354;BME280;50681;53.334;-6.536;2024-03-08T07:04:01;100223.50;;;9.36;100.00
64354;BME280;50681;53.334;-6.536;2024-03-08T07:06:30;100227.75;;;9.42;100.00
64354;BME280;50681;53.334;-6.536;2024-03-08T07:08:58;100223.25;;;9.56;100.00
64354;BME280;50681;53.334;-6.536;2024-03-08T07:11:24;100230.88;;;9.06;100.00
64354;BME280;50681;53.334;-6.536;2024-03-08T07:13:49;100236.31;;;9.01;100.00
64354;BME280;50681;53.334;-6.536;2024-03-08T07:16:15;100238.72;;;9.26;100.00
64354;BME280;50681;53.334;-6.536;2024-03-08T07:18:41;100237.34;;;9.05;100.00
64354;BME280;50681;53.334;-6.536;2024-03-08T07:21:09;100245.28;;;8.91;100.00
64354;BME280;50681;53.334;-6.536;2024-03-08T07:23:35;100225.75;;;8.80;100.00
64354;BME280;50681;53.334;-6.536;2024-03-08T07:26:21;100229.94;;;8.91;100.00
64354;BME280;50681;53.334;-6.536;2024-03-08T07:28:46;100226.97;;;9.17;100.00
64354;BME280;50681;53.334;-6.536;2024-03-08T07:31:12;100224.03;;;8.89;100.00
64354;BME280;50681;53.334;-6.536;2024-03-08T07:33:37;100227.09;;;9.07;100.00
64354;BME280;50681;53.334;-6.536;2024-03-08T07:36:03;100227.53;;;8.90;100.00
64354;BME280;50681;53.334;-6.536;2024-03-08T07:38:29;100221.06;;;8.91;100.00
64354;BME280;50681;53.334;-6.536;2024-03-08T07:40:55;100227.63;;;9.28;100.00
64354;BME280;50681;53.334;-6.536;2024-03-08T07:43:22;100238.53;;;9.18;100.00
64354;BME280;50681;53.334;-6.536;2024-03-08T07:45:48;100225.06;;;9.61;100.00
64354;BME280;50681;53.334;-6.536;2024-03-08T07:48:13;100231.16;;;9.48;100.00
64354;BME280;50681;53.334;-6.536;2024-03-08T07:50:40;100212.53;;;9.51;100.00
64354;BME280;50681;53.334;-6.536;2024-03-08T07:53:06;100223.13;;;9.67;100.00
64354;BME280;50681;53.334;-6.536;2024-03-08T07:55:35;100217.44;;;9.25;100.00
64354;BME280;50681;53.334;-6.536;2024-03-08T07:58:01;100225.28;;;9.84;100.00
64354;BME280;50681;53.334;-6.536;2024-03-08T08:00:28;100227.84;;;9.75;100.00
64354;BME280;50681;53.334;-6.536;2024-03-08T08:02:54;100236.22;;;9.74;100.00
64354;BME280;50681;53.334;-6.536;2024-03-08T08:05:19;100225.00;;;9.85;100.00
64354;BME280;50681;53.334;-6.536;2024-03-08T08:07:45;100225.03;;;10.99;100.00
64354;BME280;50681;53.334;-6.536;2024-03-08T08:10:14;100230.66;;;10.55;100.00
64354;BME280;50681;53.334;-6.536;2024-03-08T08:12:44;100234.88;;;10.28;100.00
64354;BME280;50681;53.334;-6.536;2024-03-08T08:15:10;100222.88;;;10.54;100.00
64354;BME280;50681;53.334;-6.536;2024-03-08T08:17:35;100230.72;;;10.17;100.00
64354;BME280;50681;53.334;-6.536;2024-03-08T08:20:01;100232.91;;;10.15;100.00
64354;BME280;50681;53.334;-6.536;2024-03-08T08:22:30;100229.97;;;10.30;100.00
64354;BME280;50681;53.334;-6.536;2024-03-08T08:24:55;100217.50;;;10.35;100.00
64354;BME280;50681;53.334;-6.536;2024-03-08T08:27:21;100224.69;;;10.06;100.00
64354;BME280;50681;53.334;-6.536;2024-03-08T08:29:46;100221.75;;;10.22;100.00
64354;BME280;50681;53.334;-6.536;2024-03-08T08:32:11;100222.63;;;10.17;100.00
64354;BME280;50681;53.334;-6.536;2024-03-08T08:34:37;100226.41;;;10.35;100.00
64354;BME280;50681;53.334;-6.536;2024-03-08T08:37:02;100218.97;;;10.27;100.00
64354;BME280;50681;53.334;-6.536;2024-03-08T08:39:28;100209.81;;;10.09;100.00
64354;BME280;50681;53.334;-6.536;2024-03-08T08:41:53;100215.09;;;10.33;100.00
64354;BME280;50681;53.334;-6.536;2024-03-08T08:44:18;100197.41;;;10.27;100.00
64354;BME280;50681;53.334;-6.536;2024-03-08T08:46:44;100193.88;;;10.46;100.00
64354;BME280;50681;53.334;-6.536;2024-03-08T08:49:09;100198.97;;;10.61;100.00
64354;BME280;50681;53.334;-6.536;2024-03-08T08:51:40;100191.38;;;10.49;100.00
64354;BME280;50681;53.334;-6.536;2024-03-08T08:54:05;100196.09;;;10.71;100.00
64354;BME280;50681;53.334;-6.536;2024-03-08T08:56:31;100187.88;;;10.77;100.00
64354;BME280;50681;53.334;-6.536;2024-03-08T08:58:57;100184.59;;;10.66;100.00
64354;BME280;50681;53.334;-6.536;2024-03-08T09:01:23;100186.59;;;10.60;100.00
64354;BME280;50681;53.334;-6.536;2024-03-08T09:03:48;100177.50;;;10.98;100.00
64354;BME280;50681;53.334;-6.536;2024-03-08T09:06:15;100179.41;;;11.62;100.00
64354;BME280;50681;53.334;-6.536;2024-03-08T09:08:41;100176.22;;;11.46;100.00
64354;BME280;50681;53.334;-6.536;2024-03-08T09:11:06;100169.00;;;11.55;100.00
64354;BME280;50681;53.334;-6.536;2024-03-08T09:13:32;100171.84;;;11.73;100.00
64354;BME280;50681;53.334;-6.536;2024-03-08T09:15:59;100171.34;;;11.94;100.00
64354;BME280;50681;53.334;-6.536;2024-03-08T09:18:25;100168.44;;;12.04;100.00
64354;BME280;50681;53.334;-6.536;2024-03-08T09:20:50;100161.75;;;12.33;100.00
64354;BME280;50681;53.334;-6.536;2024-03-08T09:23:19;100174.66;;;13.26;100.00
64354;BME280;50681;53.334;-6.536;2024-03-08T09:25:45;100166.34;;;12.55;100.00
64354;BME280;50681;53.334;-6.536;2024-03-08T09:28:12;100162.56;;;12.65;100.00
64354;BME280;50681;53.334;-6.536;2024-03-08T09:30:38;100158.16;;;12.46;100.00
64354;BME280;50681;53.334;-6.536;2024-03-08T09:33:04;100150.38;;;12.45;100.00
64354;BME280;50681;53.334;-6.536;2024-03-08T09:35:29;100145.78;;;12.23;100.00
64354;BME280;50681;53.334;-6.536;2024-03-08T09:37:55;100143.09;;;12.00;100.00
64354;BME280;50681;53.334;-6.536;2024-03-08T09:40:21;100140.25;;;12.28;100.00
64354;BME280;50681;53.334;-6.536;2024-03-08T09:42:52;100137.50;;;11.96;100.00
64354;BME280;50681;53.334;-6.536;2024-03-08T09:45:20;100126.44;;;11.84;100.00
64354;BME280;50681;53.334;-6.536;2024-03-08T09:47:47;100124.63;;;11.56;100.00
64354;BME280;50681;53.334;-6.536;2024-03-08T09:50:14;100125.13;;;12.04;100.00
64354;BME280;50681;53.334;-6.536;2024-03-08T09:52:47;100121.19;;;11.87;100.00
64354;BME280;50681;53.334;-6.536;2024-03-08T09:55:13;100115.03;;;11.73;100.00
64354;BME280;50681;53.334;-6.536;2024-03-08T09:57:43;100125.69;;;11.69;100.00
64354;BME280;50681;53.334;-6.536;2024-03-08T10:00:28;100112.06;;;12.29;100.00
64354;BME280;50681;53.334;-6.536;2024-03-08T10:02:54;100113.38;;;12.40;100.00
64354;BME280;50681;53.334;-6.536;2024-03-08T10:05:25;100108.25;;;12.30;100.00
64354;BME280;50681;53.334;-6.536;2024-03-08T10:07:50;100117.28;;;12.57;100.00
64354;BME280;50681;53.334;-6.536;2024-03-08T10:10:16;100109.63;;;12.50;100.00
64354;BME280;50681;53.334;-6.536;2024-03-08T10:12:41;100120.41;;;12.99;100.00
64354;BME280;50681;53.334;-6.536;2024-03-08T10:15:08;100108.91;;;12.85;100.00
64354;BME280;50681;53.334;-6.536;2024-03-08T10:17:35;100098.00;;;13.43;100.00
64354;BME280;50681;53.334;-6.536;2024-03-08T10:20:00;100105.81;;;13.53;100.00
64354;BME280;50681;53.334;-6.536;2024-03-08T10:22:37;100096.09;;;13.52;100.00
64354;BME280;50681;53.334;-6.536;2024-03-08T10:25:03;100101.97;;;13.63;100.00
64354;BME280;50681;53.334;-6.536;2024-03-08T10:27:30;100103.09;;;13.53;100.00
64354;BME280;50681;53.334;-6.536;2024-03-08T10:29:55;100088.56;;;13.40;100.00
64354;BME280;50681;53.334;-6.536;2024-03-08T10:32:21;100088.66;;;12.73;100.00
64354;BME280;50681;53.334;-6.536;2024-03-08T10:34:46;100092.28;;;12.19;100.00
64354;BME280;50681;53.334;-6.536;2024-03-08T10:37:15;100084.91;;;12.52;100.00
64354;BME280;50681;53.334;-6.536;2024-03-08T10:39:46;100083.66;;;12.17;100.00
64354;BME280;50681;53.334;-6.536;2024-03-08T10:42:17;100088.72;;;13.35;100.00
64354;BME280;50681;53.334;-6.536;2024-03-08T10:45:05;100085.69;;;13.72;100.00
64354;BME280;50681;53.334;-6.536;2024-03-08T10:47:36;100094.06;;;14.14;100.00
64354;BME280;50681;53.334;-6.536;2024-03-08T10:50:19;100072.06;;;13.98;100.00
64354;BME280;50681;53.334;-6.536;2024-03-08T10:52:51;100079.84;;;14.17;100.00
64354;BME280;50681;53.334;-6.536;2024-03-08T10:55:18;100082.34;;;13.75;100.00
64354;BME280;50681;53.334;-6.536;2024-03-08T10:57:46;100080.59;;;14.26;100.00
64354;BME280;50681;53.334;-6.536;2024-03-08T11:00:14;100090.31;;;14.66;100.00
64354;BME280;50681;53.334;-6.536;2024-03-08T11:02:44;100079.88;;;15.07;100.00
64354;BME280;50681;53.334;-6.536;2024-03-08T11:05:35;100072.88;;;14.76;100.00
64354;BME280;50681;53.334;-6.536;2024-03-08T11:08:24;100075.19;;;14.57;100.00
64354;BME280;50681;53.334;-6.536;2024-03-08T11:10:53;100057.13;;;14.61;100.00
64354;BME280;50681;53.334;-6.536;2024-03-08T11:13:41;100071.91;;;14.42;100.00
64354;BME280;50681;53.334;-6.536;2024-03-08T11:16:11;100069.94;;;14.51;100.00
64354;BME280;50681;53.334;-6.536;2024-03-08T11:18:38;100063.28;;;14.40;100.00
64354;BME280;50681;53.334;-6.536;2024-03-08T11:21:04;100059.34;;;14.29;100.00
64354;BME280;50681;53.334;-6.536;2024-03-08T11:23:34;100056.16;;;14.26;100.00
64354;BME280;50681;53.334;-6.536;2024-03-08T11:26:00;100053.78;;;13.69;100.00
64354;BME280;50681;53.334;-6.536;2024-03-08T11:28:26;100041.97;;;13.64;100.00
64354;BME280;50681;53.334;-6.536;2024-03-08T11:33:31;100042.19;;;14.07;100.00
64354;BME280;50681;53.334;-6.536;2024-03-08T11:36:10;100045.78;;;14.29;100.00
64354;BME280;50681;53.334;-6.536;2024-03-08T11:38:44;100054.28;;;14.09;100.00
64354;BME280;50681;53.334;-6.536;2024-03-08T11:41:20;100047.03;;;13.92;100.00
64354;BME280;50681;53.334;-6.536;2024-03-08T11:43:46;100047.63;;;14.07;100.00
64354;BME280;50681;53.334;-6.536;2024-03-08T11:46:17;100044.25;;;14.10;100.00
64354;BME280;50681;53.334;-6.536;2024-03-08T11:48:47;100047.03;;;14.31;100.00
64354;BME280;50681;53.334;-6.536;2024-03-08T12:28:49;99999.88;;;13.32;100.00
64354;BME280;50681;53.334;-6.536;2024-03-08T12:31:16;100005.78;;;13.51;100.00
64354;BME280;50681;53.334;-6.536;2024-03-08T12:36:18;99993.75;;;13.79;100.00
64354;BME280;50681;53.334;-6.536;2024-03-08T12:38:44;99991.56;;;13.37;100.00
64354;BME280;50681;53.334;-6.536;2024-03-08T12:41:20;99984.50;;;13.80;100.00
64354;BME280;50681;53.334;-6.536;2024-03-08T12:43:46;99987.31;;;13.92;100.00
64354;BME280;50681;53.334;-6.536;2024-03-08T12:46:26;99984.00;;;14.17;100.00
64354;BME280;50681;53.334;-6.536;2024-03-08T12:48:51;99978.25;;;13.79;100.00
64354;BME280;50681;53.334;-6.536;2024-03-08T12:51:19;99980.94;;;13.88;100.00
64354;BME280;50681;53.334;-6.536;2024-03-08T12:53:48;99975.09;;;14.07;100.00
64354;BME280;50681;53.334;-6.536;2024-03-08T12:56:19;99966.56;;;14.26;100.00
64354;BME280;50681;53.334;-6.536;2024-03-08T12:58:53;99965.25;;;14.03;100.00
64354;BME280;50681;53.334;-6.536;2024-03-08T13:01:19;99970.22;;;13.35;100.00
64354;BME280;50681;53.334;-6.536;2024-03-08T13:03:44;99970.69;;;13.46;100.00
64354;BME280;50681;53.334;-6.536;2024-03-08T13:06:11;99969.81;;;13.81;100.00
64354;BME280;50681;53.334;-6.536;2024-03-08T13:08:39;99959.53;;;13.95;100.00
64354;BME280;50681;53.334;-6.536;2024-03-08T13:11:05;99956.25;;;13.72;100.00
64354;BME280;50681;53.334;-6.536;2024-03-08T13:13:32;99965.31;;;13.85;100.00
64354;BME280;50681;53.334;-6.536;2024-03-08T13:16:01;99944.06;;;13.31;100.00
64354;BME280;50681;53.334;-6.536;2024-03-08T13:18:26;99942.56;;;13.60;100.00